createdAt,value
2022-12-11T00:01:18.477Z,10.80
2022-12-11T00:03:48.090Z,11.40
2022-12-11T00:06:18.903Z,10.70
2022-12-11T00:08:47.691Z,11.60
2022-12-11T00:11:17.095Z,11.80
2022-12-11T00:13:46.771Z,11.50
2022-12-11T00:16:15.656Z,11.80
2022-12-11T00:18:44.448Z,11.10
2022-12-11T00:21:14.466Z,10.90
2022-12-11T00:23:43.341Z,12.50
2022-12-11T00:26:15.362Z,10.50
2022-12-11T00:28:45.237Z,11.40
2022-12-11T00:31:18.990Z,11.00
2022-12-11T00:33:51.266Z,10.60
2022-12-11T00:36:25.261Z,10.60
2022-12-11T00:38:54.299Z,12.20
2022-12-11T00:41:22.940Z,11.30
2022-12-11T00:43:51.579Z,11.00
2022-12-11T00:46:19.997Z,10.00
2022-12-11T00:48:49.824Z,10.10
2022-12-11T00:51:18.260Z,9.50
2022-12-11T00:53:46.987Z,10.00
2022-12-11T00:56:18.813Z,10.80
2022-12-11T00:58:48.585Z,9.40
2022-12-11T01:01:21.632Z,10.70
2022-12-11T01:03:51.083Z,10.30
2022-12-11T01:06:23.530Z,11.70
2022-12-11T01:09:12.310Z,9.80
2022-12-11T01:11:42.504Z,10.20
2022-12-11T01:14:11.631Z,10.50
2022-12-11T01:16:40.258Z,9.70
2022-12-11T01:19:08.988Z,10.50
2022-12-11T01:21:37.279Z,10.70
2022-12-11T01:24:05.881Z,10.20
2022-12-11T01:26:34.457Z,9.80
2022-12-11T01:29:02.830Z,9.40
2022-12-11T01:31:31.225Z,9.50
2022-12-11T01:33:59.735Z,9.70
2022-12-11T01:36:28.038Z,9.70
2022-12-11T01:38:56.433Z,9.60
2022-12-11T01:41:25.214Z,9.60
2022-12-11T01:44:29.292Z,9.70
2022-12-11T01:46:58.369Z,10.50
2022-12-11T01:49:28.816Z,10.40
2022-12-11T01:52:11.902Z,9.50
2022-12-11T01:57:11.687Z,10.00
2022-12-11T01:59:44.647Z,10.40
2022-12-11T02:02:31.684Z,10.50
2022-12-11T02:05:02.497Z,10.30
2022-12-11T02:07:39.122Z,11.60
2022-12-11T02:10:10.168Z,10.10
2022-12-11T02:12:55.808Z,8.00
2022-12-11T02:16:07.881Z,8.40
2022-12-11T02:18:42.622Z,12.10
2022-12-11T02:21:20.636Z,10.90
2022-12-11T02:24:07.291Z,10.20
2022-12-11T02:26:59.873Z,9.20
2022-12-11T02:29:52.522Z,9.40
2022-12-11T02:32:49.105Z,9.10
2022-12-11T02:35:37.914Z,9.90
2022-12-11T02:38:12.923Z,9.40
2022-12-11T02:40:43.672Z,6.90
2022-12-11T02:43:16.348Z,10.00
2022-12-11T02:45:46.712Z,10.00
2022-12-11T02:48:17.686Z,9.00
2022-12-11T02:50:51.028Z,10.30
2022-12-11T02:53:24.719Z,11.40
2022-12-11T02:56:00.609Z,10.60
2022-12-11T02:58:32.721Z,8.90
2022-12-11T03:01:01.283Z,9.70
2022-12-11T03:03:30.760Z,9.10
2022-12-11T03:05:59.157Z,8.50
2022-12-11T03:08:27.561Z,9.70
2022-12-11T03:10:55.954Z,10.40
2022-12-11T03:13:24.323Z,8.60
2022-12-11T03:16:12.356Z,9.60
2022-12-11T03:18:52.865Z,10.30
2022-12-11T03:21:32.502Z,11.30
2022-12-11T03:24:24.176Z,8.90
2022-12-11T03:27:06.818Z,8.20
2022-12-11T03:29:47.215Z,10.30
2022-12-11T03:32:23.014Z,10.00
2022-12-11T03:35:03.213Z,10.60
2022-12-11T03:37:37.773Z,9.80
2022-12-11T03:40:12.395Z,9.20
2022-12-11T03:42:44.542Z,8.80
2022-12-11T03:45:14.551Z,9.80
2022-12-11T03:47:44.457Z,7.90
2022-12-11T03:50:15.247Z,7.50
2022-12-11T03:52:46.812Z,9.80
2022-12-11T03:55:18.787Z,8.80
2022-12-11T03:57:47.248Z,9.40
2022-12-11T04:00:20.100Z,9.60
2022-12-11T04:03:13.287Z,8.70
2022-12-11T04:05:45.220Z,9.40
2022-12-11T04:08:14.478Z,8.10
2022-12-11T04:10:43.392Z,9.00
2022-12-11T04:13:12.008Z,8.00
2022-12-11T04:15:40.606Z,7.70
2022-12-11T04:18:28.774Z,7.00
2022-12-11T04:21:15.958Z,7.30
2022-12-11T04:24:02.803Z,10.40
2022-12-11T04:26:31.109Z,6.50
2022-12-11T04:28:59.410Z,6.70
2022-12-11T04:31:30.057Z,7.30
2022-12-11T04:33:58.587Z,6.40
2022-12-11T04:36:26.958Z,6.40
2022-12-11T04:38:55.317Z,7.80
2022-12-11T04:41:23.631Z,7.90
2022-12-11T04:43:52.014Z,6.20
2022-12-11T04:46:23.278Z,7.80
2022-12-11T04:48:57.278Z,7.00
2022-12-11T04:51:27.897Z,7.80
2022-12-11T04:53:56.233Z,6.40
2022-12-11T04:56:24.546Z,6.50
2022-12-11T04:58:52.837Z,7.30
2022-12-11T05:01:22.711Z,7.10
2022-12-11T05:03:51.163Z,6.40
2022-12-11T05:06:19.651Z,7.20
2022-12-11T05:08:48.011Z,7.60
2022-12-11T05:11:17.484Z,7.60
2022-12-11T05:13:45.942Z,6.90
2022-12-11T05:16:16.954Z,6.60
2022-12-11T05:18:45.540Z,7.20
2022-12-11T05:21:15.914Z,7.20
2022-12-11T05:23:44.454Z,7.80
2022-12-11T05:26:15.830Z,9.10
2022-12-11T05:28:45.039Z,6.50
2022-12-11T05:31:17.259Z,7.00
2022-12-11T05:33:47.025Z,8.10
2022-12-11T05:36:19.738Z,6.30
2022-12-11T05:38:48.554Z,7.40
2022-12-11T05:41:19.631Z,7.50
2022-12-11T05:43:48.437Z,6.80
2022-12-11T05:46:22.963Z,6.70
2022-12-11T05:48:55.699Z,6.20
2022-12-11T05:51:24.281Z,7.40
2022-12-11T05:53:53.875Z,7.40
2022-12-11T05:56:26.355Z,7.20
2022-12-11T05:58:55.778Z,6.40
2022-12-11T06:01:33.745Z,8.20
2022-12-11T06:04:02.898Z,8.00
2022-12-11T06:06:31.756Z,7.50
2022-12-11T06:09:01.204Z,8.00
2022-12-11T06:11:31.594Z,8.20
2022-12-11T06:14:02.414Z,6.70
2022-12-11T06:16:31.717Z,7.70
2022-12-11T06:19:00.150Z,7.70
2022-12-11T06:21:31.333Z,8.60
2022-12-11T06:24:02.679Z,7.20
2022-12-11T06:26:32.191Z,7.40
2022-12-11T06:29:00.808Z,9.40
2022-12-11T06:31:29.154Z,9.10
2022-12-11T06:33:58.087Z,7.90
2022-12-11T06:36:26.484Z,7.20
2022-12-11T06:38:55.487Z,8.70
2022-12-11T06:41:23.795Z,8.30
2022-12-11T06:43:51.745Z,8.60
2022-12-11T06:46:20.539Z,10.10
2022-12-11T06:48:49.549Z,9.70
2022-12-11T06:51:21.694Z,8.80
2022-12-11T06:53:57.171Z,6.60
2022-12-11T06:56:25.403Z,8.70
2022-12-11T06:58:53.316Z,7.80
2022-12-11T07:01:28.298Z,8.90
2022-12-11T07:03:59.024Z,8.40
2022-12-11T07:06:29.111Z,10.30
2022-12-11T07:08:57.266Z,8.50
2022-12-11T07:11:25.231Z,8.30
2022-12-11T07:13:53.194Z,9.20
2022-12-11T07:16:21.459Z,10.40
2022-12-11T07:18:51.281Z,11.20
2022-12-11T07:21:21.130Z,10.70
2022-12-11T07:23:50.379Z,10.40
2022-12-11T07:26:22.125Z,11.30
2022-12-11T07:28:50.325Z,6.80
2022-12-11T07:31:22.200Z,9.50
2022-12-11T07:34:08.498Z,9.20
2022-12-11T07:36:36.507Z,10.20
2022-12-11T07:39:04.504Z,11.40
2022-12-11T07:41:32.385Z,10.20
2022-12-11T07:44:01.411Z,9.90
2022-12-11T07:46:32.405Z,11.40
2022-12-11T07:49:01.348Z,9.10
2022-12-11T07:51:35.748Z,9.10
2022-12-11T07:54:16.822Z,9.00
2022-12-11T07:56:52.812Z,8.50
2022-12-11T07:59:21.686Z,7.10
2022-12-11T08:01:49.669Z,7.10
2022-12-11T08:04:17.573Z,10.50
2022-12-11T08:06:45.693Z,8.50
2022-12-11T08:09:20.895Z,6.00
2022-12-11T08:11:51.192Z,7.60
2022-12-11T08:14:19.922Z,9.30
2022-12-11T08:16:49.004Z,9.10
2022-12-11T08:19:18.016Z,8.70
2022-12-11T08:21:46.856Z,6.50
2022-12-11T08:24:20.070Z,7.70
2022-12-11T08:29:16.524Z,9.10
2022-12-11T08:31:44.779Z,8.80
2022-12-11T08:34:14.214Z,9.50
2022-12-11T08:36:42.250Z,9.00
2022-12-11T08:39:10.098Z,8.90
2022-12-11T08:41:38.841Z,7.90
2022-12-11T08:44:16.859Z,9.30
2022-12-11T08:46:45.807Z,11.10
2022-12-11T08:49:13.748Z,9.40
2022-12-11T08:51:41.692Z,7.00
2022-12-11T08:54:10.966Z,10.20
2022-12-11T08:56:39.006Z,9.80
2022-12-11T08:59:07.230Z,12.00
2022-12-11T09:01:35.255Z,10.30
2022-12-11T09:04:03.487Z,9.60
2022-12-11T09:06:33.346Z,9.00
2022-12-11T09:09:02.629Z,10.40
2022-12-11T09:11:35.538Z,10.40
2022-12-11T09:19:14.121Z,7.40
2022-12-11T09:21:43.822Z,9.20
2022-12-11T09:24:13.449Z,9.00
2022-12-11T09:26:42.129Z,8.80
2022-12-11T09:29:12.000Z,8.90
2022-12-11T09:31:40.413Z,8.60
2022-12-11T09:34:12.426Z,10.90
2022-12-11T09:36:44.057Z,9.80
2022-12-11T09:39:14.405Z,8.80
2022-12-11T09:42:30.612Z,9.20
2022-12-11T09:45:02.974Z,13.70
2022-12-11T09:47:49.647Z,9.80
2022-12-11T09:50:31.270Z,10.40
2022-12-11T09:53:30.985Z,8.90
2022-12-11T09:56:36.558Z,10.50
2022-12-11T09:59:28.943Z,11.30
2022-12-11T10:02:30.406Z,9.20
2022-12-11T10:05:26.529Z,7.70
2022-12-11T10:08:24.231Z,9.30
2022-12-11T10:11:30.124Z,8.60
2022-12-11T10:14:26.246Z,9.20
2022-12-11T10:17:25.688Z,9.30
2022-12-11T10:19:57.328Z,9.40
2022-12-11T10:22:31.949Z,8.90
2022-12-11T10:25:11.120Z,11.90
2022-12-11T10:27:41.310Z,10.50
2022-12-11T10:30:23.251Z,9.20
2022-12-11T10:33:13.593Z,9.80
2022-12-11T10:35:48.150Z,8.90
2022-12-11T10:38:27.515Z,8.40
2022-12-11T10:41:01.098Z,9.30
2022-12-11T10:43:41.439Z,7.20
2022-12-11T10:46:26.088Z,8.90
2022-12-11T10:48:58.051Z,9.50
2022-12-11T10:51:37.503Z,7.70
2022-12-11T10:54:31.001Z,10.70
2022-12-11T10:57:01.870Z,9.50
2022-12-11T11:00:00.214Z,10.00
2022-12-11T11:02:35.974Z,8.40
2022-12-11T11:05:37.451Z,8.50
2022-12-11T11:08:16.203Z,9.90
2022-12-11T11:11:01.718Z,8.10
2022-12-11T11:13:31.947Z,10.30
2022-12-11T11:16:06.869Z,6.90
2022-12-11T11:18:35.043Z,9.80
2022-12-11T11:21:03.444Z,9.10
2022-12-11T11:23:31.507Z,8.80
2022-12-11T11:26:07.753Z,9.20
2022-12-11T11:28:42.600Z,9.00
2022-12-11T11:31:14.552Z,8.70
2022-12-11T11:34:10.380Z,9.10
2022-12-11T11:36:38.640Z,7.80
2022-12-11T11:39:27.517Z,8.70
2022-12-11T11:42:20.886Z,8.30
2022-12-11T11:48:11.444Z,6.80
2022-12-11T11:50:45.556Z,8.50
2022-12-11T11:53:27.225Z,9.70
2022-12-11T11:56:17.257Z,8.90
2022-12-11T11:59:03.064Z,11.60
2022-12-11T12:01:33.570Z,8.30
2022-12-11T12:04:04.250Z,8.90
2022-12-11T12:07:14.237Z,7.60
2022-12-11T12:09:57.514Z,8.70
2022-12-11T12:13:48.985Z,8.70
2022-12-11T12:17:03.933Z,7.20
2022-12-11T12:19:53.613Z,8.80
2022-12-11T12:22:55.995Z,6.40
2022-12-11T12:26:08.532Z,7.80
2022-12-11T12:29:14.856Z,6.40
2022-12-11T12:32:09.657Z,5.60
2022-12-11T12:34:48.556Z,7.30
2022-12-11T12:37:25.517Z,6.70
2022-12-11T12:40:15.157Z,8.60
2022-12-11T12:43:34.602Z,6.90
2022-12-11T12:46:23.668Z,7.60
2022-12-11T12:48:54.514Z,9.30
2022-12-11T12:51:23.230Z,5.60
2022-12-11T12:54:00.938Z,7.40
2022-12-11T12:56:34.809Z,6.80
2022-12-11T12:59:03.070Z,6.40
2022-12-11T13:01:33.300Z,6.50
2022-12-11T13:04:10.645Z,5.00
2022-12-11T13:06:50.391Z,5.50
2022-12-11T13:09:23.860Z,6.20
2022-12-11T13:11:57.984Z,5.20
2022-12-11T13:14:33.800Z,6.40
2022-12-11T13:17:21.224Z,5.40
2022-12-11T13:19:53.287Z,6.70
2022-12-11T13:22:24.692Z,4.80
2022-12-11T13:24:52.599Z,4.50
2022-12-11T13:27:46.510Z,5.50
2022-12-11T13:30:14.340Z,4.70
2022-12-11T13:33:05.413Z,6.20
2022-12-11T13:35:35.413Z,6.00
2022-12-11T13:38:15.193Z,5.10
2022-12-11T13:40:45.341Z,7.40
2022-12-11T13:43:22.626Z,7.30
2022-12-11T13:45:55.882Z,5.90
2022-12-11T13:48:36.903Z,6.80
2022-12-11T13:51:06.782Z,4.40
2022-12-11T13:53:34.851Z,6.60
2022-12-11T13:56:16.749Z,3.60
2022-12-11T13:58:45.535Z,5.60
2022-12-11T14:01:27.797Z,6.30
2022-12-11T14:04:23.843Z,6.60
2022-12-11T14:06:52.026Z,6.70
2022-12-11T14:09:26.302Z,6.50
2022-12-11T14:11:57.340Z,7.30
2022-12-11T14:14:43.432Z,7.90
2022-12-11T14:17:18.157Z,6.30
2022-12-11T14:19:48.715Z,7.80
2022-12-11T14:22:24.472Z,7.10
2022-12-11T14:24:56.601Z,8.90
2022-12-11T14:27:27.037Z,8.60
2022-12-11T14:29:55.821Z,9.50
2022-12-11T14:32:47.453Z,7.40
2022-12-11T14:35:43.751Z,7.30
2022-12-11T14:38:33.747Z,7.20
2022-12-11T14:41:23.748Z,6.40
2022-12-11T14:43:57.492Z,6.10
2022-12-11T14:46:47.404Z,7.50
2022-12-11T14:49:49.408Z,6.40
2022-12-11T14:52:32.677Z,5.90
2022-12-11T14:55:25.043Z,6.00
2022-12-11T14:58:02.877Z,6.30
2022-12-11T15:00:37.478Z,5.10
2022-12-11T15:03:17.859Z,6.30
2022-12-11T15:05:54.892Z,8.40
2022-12-11T15:08:30.235Z,6.90
2022-12-11T15:11:12.097Z,7.70
2022-12-11T15:14:02.790Z,7.90
2022-12-11T15:16:39.566Z,6.50
2022-12-11T15:19:18.958Z,9.00
2022-12-11T15:21:47.555Z,8.00
2022-12-11T15:24:27.933Z,7.70
2022-12-11T15:27:01.164Z,9.90
2022-12-11T15:29:38.853Z,8.00
2022-12-11T15:32:09.922Z,9.20
2022-12-11T15:34:46.918Z,9.70
2022-12-11T15:37:30.715Z,9.00
2022-12-11T15:40:02.864Z,8.80
2022-12-11T15:42:45.224Z,9.40
2022-12-11T15:45:20.258Z,17.60
2022-12-11T15:47:50.174Z,9.80
2022-12-11T15:50:24.833Z,10.70
2022-12-11T15:52:55.433Z,10.20
2022-12-11T15:55:27.140Z,10.00
2022-12-11T15:58:00.262Z,10.40
2022-12-11T16:00:28.499Z,10.50
2022-12-11T16:02:57.609Z,9.80
2022-12-11T16:05:26.798Z,7.50
2022-12-11T16:07:59.170Z,9.20
2022-12-11T16:10:27.343Z,9.30
2022-12-11T16:12:59.433Z,7.30
2022-12-11T16:15:29.795Z,9.40
2022-12-11T16:18:11.374Z,9.20
2022-12-11T16:20:40.983Z,7.10
2022-12-11T16:23:10.898Z,8.70
2022-12-11T16:25:42.032Z,8.10
2022-12-11T16:28:12.956Z,8.60
2022-12-11T16:30:43.318Z,9.60
2022-12-11T16:33:13.370Z,8.60
2022-12-11T16:35:43.069Z,7.20
2022-12-11T16:38:11.619Z,8.40
2022-12-11T16:40:41.326Z,10.00
2022-12-11T16:43:10.906Z,9.40
2022-12-11T16:45:38.829Z,9.70
2022-12-11T16:48:06.828Z,8.70
2022-12-11T16:50:36.213Z,9.80
2022-12-11T16:53:04.197Z,10.10
2022-12-11T16:55:32.082Z,15.50
2022-12-11T16:58:00.107Z,11.00
2022-12-11T17:00:28.067Z,14.50
2022-12-11T17:02:58.903Z,8.30
2022-12-11T17:05:29.184Z,5.30
2022-12-11T17:07:58.363Z,7.40
2022-12-11T17:10:26.509Z,8.90
2022-12-11T17:12:54.910Z,8.70
2022-12-11T17:15:23.008Z,8.90
2022-12-11T17:17:50.940Z,7.70
2022-12-11T17:20:20.069Z,8.30
2022-12-11T17:22:48.111Z,8.40
2022-12-11T17:25:22.210Z,7.40
2022-12-11T17:27:50.464Z,8.10
2022-12-11T17:30:18.408Z,8.60
2022-12-11T17:32:49.518Z,9.10
2022-12-11T17:35:17.637Z,10.50
2022-12-11T17:37:45.984Z,6.80
2022-12-11T17:40:14.086Z,11.50
2022-12-11T17:42:45.078Z,10.70
2022-12-11T17:45:13.411Z,7.60
2022-12-11T17:47:42.765Z,11.60
2022-12-11T17:50:20.625Z,12.20
2022-12-11T17:52:49.205Z,12.40
2022-12-11T17:55:17.368Z,14.20
2022-12-11T17:57:45.870Z,11.80
2022-12-11T18:00:15.542Z,15.00
2022-12-11T18:02:43.511Z,11.50
2022-12-11T18:05:12.184Z,7.50
2022-12-11T18:07:40.839Z,14.40
2022-12-11T18:10:09.213Z,11.60
2022-12-11T18:12:37.556Z,11.80
2022-12-11T18:15:06.274Z,12.10
2022-12-11T18:17:35.247Z,11.60
2022-12-11T18:20:04.923Z,11.00
2022-12-11T18:22:32.976Z,11.30
2022-12-11T18:25:03.941Z,10.90
2022-12-11T18:28:44.774Z,10.20
2022-12-11T18:31:30.210Z,10.10
2022-12-11T18:33:58.189Z,8.70
2022-12-11T18:36:26.646Z,5.40
2022-12-11T18:38:54.752Z,8.30
2022-12-11T18:41:22.690Z,8.60
2022-12-11T18:43:50.551Z,8.30
2022-12-11T18:46:21.434Z,10.50
2022-12-11T18:48:50.758Z,8.70
2022-12-11T18:51:24.700Z,9.60
2022-12-11T18:53:53.523Z,10.50
2022-12-11T18:56:23.617Z,9.10
2022-12-11T18:58:52.336Z,8.90
2022-12-11T19:01:30.788Z,9.10
2022-12-11T19:04:36.114Z,9.30
2022-12-11T19:07:04.189Z,8.50
2022-12-11T19:09:37.772Z,9.80
2022-12-11T19:12:06.599Z,9.00
2022-12-11T19:14:34.591Z,8.40
2022-12-11T19:17:03.296Z,7.00
2022-12-11T19:19:31.453Z,9.10
2022-12-11T19:21:59.396Z,7.80
2022-12-11T19:24:28.234Z,7.90
2022-12-11T19:35:29.117Z,7.60
2022-12-11T19:37:59.419Z,6.10
2022-12-11T19:41:02.780Z,5.40
2022-12-11T19:44:19.330Z,8.90
2022-12-11T19:48:50.149Z,8.70
2022-12-11T19:51:28.816Z,9.70
2022-12-11T19:54:07.618Z,6.50
2022-12-11T19:57:15.975Z,7.30
2022-12-11T19:59:59.329Z,10.40
2022-12-11T20:02:29.830Z,11.50
2022-12-11T20:05:12.451Z,10.80
2022-12-11T20:09:12.201Z,7.10
2022-12-11T20:12:47.281Z,9.40
2022-12-11T20:18:48.100Z,9.50
2022-12-11T20:22:25.286Z,9.10
2022-12-11T20:40:17.525Z,9.80
2022-12-11T20:42:50.238Z,8.70
2022-12-11T20:45:18.577Z,8.20
2022-12-11T20:47:48.291Z,5.60
2022-12-11T20:50:21.659Z,8.50
2022-12-11T20:52:51.258Z,8.00
2022-12-11T20:55:31.139Z,5.70
2022-12-11T20:58:14.230Z,6.00
2022-12-11T21:00:52.821Z,6.80
2022-12-11T21:03:42.175Z,6.90
2022-12-11T21:06:23.069Z,7.20
2022-12-11T21:08:52.332Z,7.40
2022-12-11T21:11:24.199Z,6.80
2022-12-11T21:13:53.871Z,8.50
2022-12-11T21:16:24.600Z,6.90
2022-12-11T21:18:52.596Z,8.50
2022-12-11T21:21:21.192Z,7.80
2022-12-11T21:23:50.748Z,8.40
2022-12-11T21:26:21.361Z,6.80
2022-12-11T21:28:53.178Z,8.40
2022-12-11T21:31:21.424Z,8.90
2022-12-11T21:33:49.519Z,8.60
2022-12-11T21:36:17.930Z,8.70
2022-12-11T21:38:47.597Z,9.30
2022-12-11T21:41:25.758Z,9.60
2022-12-11T21:45:21.222Z,7.00
2022-12-11T21:46:44.945Z,10.10
2022-12-11T21:49:15.175Z,8.90
2022-12-11T21:51:47.155Z,9.50
2022-12-11T21:54:18.739Z,8.30
2022-12-11T21:56:47.236Z,8.30
2022-12-11T21:59:15.289Z,10.50
2022-12-11T22:01:46.101Z,10.00
2022-12-11T22:04:15.502Z,10.60
2022-12-11T22:06:46.747Z,10.60
2022-12-11T22:09:16.324Z,11.30
2022-12-11T22:11:46.026Z,9.40
2022-12-11T22:14:18.224Z,8.90
2022-12-11T22:16:46.619Z,9.40
2022-12-11T22:19:14.700Z,9.30
2022-12-11T22:21:42.901Z,9.10
2022-12-11T22:24:11.038Z,9.60
2022-12-11T22:26:39.171Z,8.30
2022-12-11T22:29:07.320Z,9.70
2022-12-11T22:31:35.274Z,8.70
2022-12-11T22:34:03.254Z,7.50
2022-12-11T22:36:31.220Z,8.40
2022-12-11T22:39:00.207Z,9.00
2022-12-11T22:41:32.554Z,8.10
2022-12-11T22:44:00.672Z,10.20
2022-12-11T22:46:30.869Z,9.40
2022-12-11T22:48:59.322Z,7.80
2022-12-11T22:51:27.636Z,11.00
2022-12-11T22:53:55.852Z,11.40
2022-12-11T22:56:24.546Z,10.50
2022-12-11T22:58:52.496Z,11.30
2022-12-11T23:01:23.677Z,10.80
2022-12-11T23:03:52.495Z,10.00
2022-12-11T23:06:24.830Z,9.90
2022-12-11T23:08:55.326Z,11.20
2022-12-11T23:11:32.233Z,10.40
2022-12-11T23:14:00.735Z,7.00
2022-12-11T23:16:29.093Z,9.80
2022-12-11T23:18:58.404Z,11.20
2022-12-11T23:21:28.591Z,8.20
2022-12-11T23:23:58.456Z,10.90
2022-12-11T23:26:28.462Z,9.90
2022-12-11T23:28:58.780Z,11.30
2022-12-11T23:31:30.242Z,11.10
2022-12-11T23:33:59.148Z,12.10
2022-12-11T23:36:29.065Z,12.30
2022-12-11T23:38:57.335Z,11.60
2022-12-11T23:41:25.478Z,11.90
2022-12-11T23:43:53.585Z,11.40
2022-12-11T23:46:24.425Z,11.40
2022-12-11T23:48:54.443Z,10.90
2022-12-11T23:51:25.423Z,11.60
2022-12-11T23:53:54.224Z,12.20
2022-12-11T23:56:28.456Z,9.70
2022-12-11T23:58:57.570Z,11.00
